sensor_id;sensor_type;location;lat;lon;timestamp;P1;durP1;ratioP1;P2;durP2;ratioP2
15645;SDS011;7922;43.622;1.476;2023-07-31T00:02:10;6.73;;;3.87;;
15645;SDS011;7922;43.622;1.476;2023-07-31T00:04:35;5.87;;;3.57;;
15645;SDS011;7922;43.622;1.476;2023-07-31T00:07:00;7.33;;;3.77;;
15645;SDS011;7922;43.622;1.476;2023-07-31T00:09:26;6.13;;;3.90;;
15645;SDS011;7922;43.622;1.476;2023-07-31T00:11:51;6.40;;;3.97;;
15645;SDS011;7922;43.622;1.476;2023-07-31T00:14:16;5.00;;;3.83;;
15645;SDS011;7922;43.622;1.476;2023-07-31T00:16:41;8.17;;;4.07;;
15645;SDS011;7922;43.622;1.476;2023-07-31T00:19:07;10.17;;;4.20;;
15645;SDS011;7922;43.622;1.476;2023-07-31T00:21:32;6.93;;;4.10;;
15645;SDS011;7922;43.622;1.476;2023-07-31T00:23:57;5.93;;;4.13;;
15645;SDS011;7922;43.622;1.476;2023-07-31T00:26:23;5.83;;;3.83;;
15645;SDS011;7922;43.622;1.476;2023-07-31T00:28:48;6.93;;;3.70;;
15645;SDS011;7922;43.622;1.476;2023-07-31T00:31:13;4.57;;;3.70;;
15645;SDS011;7922;43.622;1.476;2023-07-31T00:33:38;5.30;;;3.83;;
15645;SDS011;7922;43.622;1.476;2023-07-31T00:36:04;4.50;;;3.50;;
15645;SDS011;7922;43.622;1.476;2023-07-31T00:38:29;7.77;;;3.77;;
15645;SDS011;7922;43.622;1.476;2023-07-31T00:40:54;6.33;;;4.00;;
15645;SDS011;7922;43.622;1.476;2023-07-31T00:43:20;6.10;;;4.03;;
15645;SDS011;7922;43.622;1.476;2023-07-31T00:45:45;6.10;;;3.47;;
15645;SDS011;7922;43.622;1.476;2023-07-31T00:48:10;6.20;;;3.80;;
15645;SDS011;7922;43.622;1.476;2023-07-31T00:50:36;7.50;;;3.90;;
15645;SDS011;7922;43.622;1.476;2023-07-31T00:53:01;7.93;;;3.77;;
15645;SDS011;7922;43.622;1.476;2023-07-31T00:55:26;5.63;;;3.57;;
15645;SDS011;7922;43.622;1.476;2023-07-31T00:57:52;4.47;;;3.50;;
15645;SDS011;7922;43.622;1.476;2023-07-31T01:00:18;6.77;;;4.07;;
15645;SDS011;7922;43.622;1.476;2023-07-31T01:02:44;5.17;;;3.93;;
15645;SDS011;7922;43.622;1.476;2023-07-31T01:05:09;4.63;;;3.40;;
15645;SDS011;7922;43.622;1.476;2023-07-31T01:07:38;7.63;;;4.10;;
15645;SDS011;7922;43.622;1.476;2023-07-31T01:12:44;6.53;;;4.10;;
15645;SDS011;7922;43.622;1.476;2023-07-31T01:15:10;5.77;;;3.80;;
15645;SDS011;7922;43.622;1.476;2023-07-31T01:17:36;4.93;;;3.43;;
15645;SDS011;7922;43.622;1.476;2023-07-31T01:20:02;5.80;;;3.53;;
15645;SDS011;7922;43.622;1.476;2023-07-31T01:22:46;6.33;;;3.80;;
15645;SDS011;7922;43.622;1.476;2023-07-31T01:27:53;7.23;;;3.50;;
15645;SDS011;7922;43.622;1.476;2023-07-31T01:30:25;8.17;;;4.40;;
15645;SDS011;7922;43.622;1.476;2023-07-31T01:32:56;5.20;;;3.80;;
15645;SDS011;7922;43.622;1.476;2023-07-31T01:35:22;5.57;;;3.53;;
15645;SDS011;7922;43.622;1.476;2023-07-31T01:37:48;7.53;;;3.83;;
15645;SDS011;7922;43.622;1.476;2023-07-31T01:40:13;5.73;;;3.57;;
15645;SDS011;7922;43.622;1.476;2023-07-31T01:42:38;5.73;;;3.60;;
15645;SDS011;7922;43.622;1.476;2023-07-31T01:45:04;5.87;;;3.67;;
15645;SDS011;7922;43.622;1.476;2023-07-31T01:47:29;5.00;;;3.73;;
15645;SDS011;7922;43.622;1.476;2023-07-31T01:49:55;5.20;;;3.70;;
15645;SDS011;7922;43.622;1.476;2023-07-31T01:52:20;5.43;;;3.97;;
15645;SDS011;7922;43.622;1.476;2023-07-31T01:54:45;4.80;;;4.00;;
15645;SDS011;7922;43.622;1.476;2023-07-31T01:57:10;6.07;;;4.20;;
15645;SDS011;7922;43.622;1.476;2023-07-31T01:59:36;6.23;;;4.13;;
15645;SDS011;7922;43.622;1.476;2023-07-31T02:02:01;6.20;;;3.63;;
15645;SDS011;7922;43.622;1.476;2023-07-31T02:04:26;6.20;;;4.23;;
15645;SDS011;7922;43.622;1.476;2023-07-31T02:06:52;6.00;;;4.03;;
15645;SDS011;7922;43.622;1.476;2023-07-31T02:09:18;6.37;;;4.00;;
15645;SDS011;7922;43.622;1.476;2023-07-31T02:11:43;6.57;;;3.90;;
15645;SDS011;7922;43.622;1.476;2023-07-31T02:14:08;5.73;;;3.77;;
15645;SDS011;7922;43.622;1.476;2023-07-31T02:16:33;6.10;;;4.00;;
15645;SDS011;7922;43.622;1.476;2023-07-31T02:18:59;5.90;;;3.87;;
15645;SDS011;7922;43.622;1.476;2023-07-31T02:21:24;7.23;;;4.00;;
15645;SDS011;7922;43.622;1.476;2023-07-31T02:23:49;6.10;;;3.87;;
15645;SDS011;7922;43.622;1.476;2023-07-31T02:26:14;7.77;;;4.33;;
15645;SDS011;7922;43.622;1.476;2023-07-31T02:28:40;8.53;;;4.33;;
15645;SDS011;7922;43.622;1.476;2023-07-31T02:31:05;7.13;;;4.10;;
15645;SDS011;7922;43.622;1.476;2023-07-31T02:33:31;5.37;;;4.17;;
15645;SDS011;7922;43.622;1.476;2023-07-31T02:35:56;7.77;;;4.73;;
15645;SDS011;7922;43.622;1.476;2023-07-31T02:38:21;9.93;;;4.20;;
15645;SDS011;7922;43.622;1.476;2023-07-31T02:40:46;5.80;;;3.93;;
15645;SDS011;7922;43.622;1.476;2023-07-31T02:43:12;5.87;;;4.33;;
15645;SDS011;7922;43.622;1.476;2023-07-31T02:45:37;7.10;;;3.97;;
15645;SDS011;7922;43.622;1.476;2023-07-31T02:48:02;6.57;;;4.20;;
15645;SDS011;7922;43.622;1.476;2023-07-31T02:50:28;6.43;;;3.83;;
15645;SDS011;7922;43.622;1.476;2023-07-31T02:52:53;6.83;;;4.03;;
15645;SDS011;7922;43.622;1.476;2023-07-31T02:55:18;6.43;;;3.93;;
15645;SDS011;7922;43.622;1.476;2023-07-31T02:57:43;8.40;;;3.87;;
15645;SDS011;7922;43.622;1.476;2023-07-31T03:00:09;8.97;;;4.50;;
15645;SDS011;7922;43.622;1.476;2023-07-31T03:02:34;9.10;;;4.03;;
15645;SDS011;7922;43.622;1.476;2023-07-31T03:05:00;8.13;;;4.30;;
15645;SDS011;7922;43.622;1.476;2023-07-31T03:07:25;7.70;;;4.03;;
15645;SDS011;7922;43.622;1.476;2023-07-31T03:09:50;5.73;;;4.13;;
15645;SDS011;7922;43.622;1.476;2023-07-31T03:12:15;5.07;;;3.60;;
15645;SDS011;7922;43.622;1.476;2023-07-31T03:14:41;7.90;;;4.13;;
15645;SDS011;7922;43.622;1.476;2023-07-31T03:17:06;6.27;;;4.00;;
15645;SDS011;7922;43.622;1.476;2023-07-31T03:19:32;5.37;;;3.70;;
15645;SDS011;7922;43.622;1.476;2023-07-31T03:21:58;8.17;;;3.97;;
15645;SDS011;7922;43.622;1.476;2023-07-31T03:24:24;4.83;;;3.53;;
15645;SDS011;7922;43.622;1.476;2023-07-31T03:26:49;5.53;;;3.90;;
15645;SDS011;7922;43.622;1.476;2023-07-31T03:29:14;4.90;;;4.00;;
15645;SDS011;7922;43.622;1.476;2023-07-31T03:31:40;4.67;;;3.83;;
15645;SDS011;7922;43.622;1.476;2023-07-31T03:34:05;5.17;;;4.20;;
15645;SDS011;7922;43.622;1.476;2023-07-31T03:36:30;7.90;;;4.30;;
15645;SDS011;7922;43.622;1.476;2023-07-31T03:38:56;5.30;;;3.87;;
15645;SDS011;7922;43.622;1.476;2023-07-31T03:41:21;8.00;;;4.10;;
15645;SDS011;7922;43.622;1.476;2023-07-31T03:43:49;7.23;;;4.10;;
15645;SDS011;7922;43.622;1.476;2023-07-31T03:46:15;8.50;;;4.40;;
15645;SDS011;7922;43.622;1.476;2023-07-31T03:48:40;6.50;;;4.07;;
15645;SDS011;7922;43.622;1.476;2023-07-31T03:51:05;9.97;;;4.40;;
15645;SDS011;7922;43.622;1.476;2023-07-31T03:53:31;7.13;;;4.40;;
15645;SDS011;7922;43.622;1.476;2023-07-31T03:55:56;4.70;;;4.17;;
15645;SDS011;7922;43.622;1.476;2023-07-31T03:58:21;8.07;;;4.17;;
15645;SDS011;7922;43.622;1.476;2023-07-31T04:00:47;6.50;;;4.40;;
15645;SDS011;7922;43.622;1.476;2023-07-31T04:03:12;10.10;;;4.63;;
15645;SDS011;7922;43.622;1.476;2023-07-31T04:05:38;7.73;;;4.30;;
15645;SDS011;7922;43.622;1.476;2023-07-31T04:08:03;8.67;;;4.33;;
15645;SDS011;7922;43.622;1.476;2023-07-31T04:10:29;9.43;;;4.30;;
15645;SDS011;7922;43.622;1.476;2023-07-31T04:12:54;6.33;;;4.23;;
15645;SDS011;7922;43.622;1.476;2023-07-31T04:15:19;7.10;;;4.03;;
15645;SDS011;7922;43.622;1.476;2023-07-31T04:17:44;5.97;;;4.07;;
15645;SDS011;7922;43.622;1.476;2023-07-31T04:20:10;6.07;;;4.43;;
15645;SDS011;7922;43.622;1.476;2023-07-31T04:22:35;8.53;;;4.67;;
15645;SDS011;7922;43.622;1.476;2023-07-31T04:25:01;6.47;;;4.30;;
15645;SDS011;7922;43.622;1.476;2023-07-31T04:27:26;8.47;;;4.67;;
15645;SDS011;7922;43.622;1.476;2023-07-31T04:29:51;4.53;;;3.90;;
15645;SDS011;7922;43.622;1.476;2023-07-31T04:32:16;9.30;;;4.30;;
15645;SDS011;7922;43.622;1.476;2023-07-31T04:34:42;6.30;;;4.40;;
15645;SDS011;7922;43.622;1.476;2023-07-31T04:37:08;6.00;;;3.87;;
15645;SDS011;7922;43.622;1.476;2023-07-31T04:39:33;6.40;;;4.53;;
15645;SDS011;7922;43.622;1.476;2023-07-31T04:41:58;8.10;;;4.57;;
15645;SDS011;7922;43.622;1.476;2023-07-31T04:44:24;7.43;;;4.87;;
15645;SDS011;7922;43.622;1.476;2023-07-31T04:46:49;7.10;;;4.80;;
15645;SDS011;7922;43.622;1.476;2023-07-31T04:49:14;8.07;;;4.93;;
15645;SDS011;7922;43.622;1.476;2023-07-31T04:51:39;7.33;;;4.30;;
15645;SDS011;7922;43.622;1.476;2023-07-31T04:54:05;7.77;;;4.37;;
15645;SDS011;7922;43.622;1.476;2023-07-31T04:56:30;9.83;;;4.60;;
15645;SDS011;7922;43.622;1.476;2023-07-31T04:58:55;9.53;;;4.50;;
15645;SDS011;7922;43.622;1.476;2023-07-31T05:01:20;6.97;;;4.43;;
15645;SDS011;7922;43.622;1.476;2023-07-31T05:03:46;5.97;;;3.80;;
15645;SDS011;7922;43.622;1.476;2023-07-31T05:06:11;9.40;;;4.30;;
15645;SDS011;7922;43.622;1.476;2023-07-31T05:08:36;6.57;;;4.20;;
15645;SDS011;7922;43.622;1.476;2023-07-31T05:11:02;8.80;;;4.33;;
15645;SDS011;7922;43.622;1.476;2023-07-31T05:13:27;7.47;;;4.47;;
15645;SDS011;7922;43.622;1.476;2023-07-31T05:15:53;7.30;;;4.67;;
15645;SDS011;7922;43.622;1.476;2023-07-31T05:18:18;6.93;;;4.50;;
15645;SDS011;7922;43.622;1.476;2023-07-31T05:20:43;8.03;;;4.10;;
15645;SDS011;7922;43.622;1.476;2023-07-31T05:23:08;7.03;;;4.20;;
15645;SDS011;7922;43.622;1.476;2023-07-31T05:25:34;8.83;;;4.60;;
15645;SDS011;7922;43.622;1.476;2023-07-31T05:27:59;8.27;;;4.60;;
15645;SDS011;7922;43.622;1.476;2023-07-31T05:30:24;9.77;;;4.53;;
15645;SDS011;7922;43.622;1.476;2023-07-31T05:32:50;9.20;;;4.57;;
15645;SDS011;7922;43.622;1.476;2023-07-31T05:35:15;7.70;;;4.50;;
15645;SDS011;7922;43.622;1.476;2023-07-31T05:37:40;7.27;;;4.57;;
15645;SDS011;7922;43.622;1.476;2023-07-31T05:40:06;8.97;;;4.57;;
15645;SDS011;7922;43.622;1.476;2023-07-31T05:42:32;8.43;;;4.00;;
15645;SDS011;7922;43.622;1.476;2023-07-31T05:44:57;7.10;;;4.10;;
15645;SDS011;7922;43.622;1.476;2023-07-31T05:47:22;6.50;;;3.97;;
15645;SDS011;7922;43.622;1.476;2023-07-31T05:49:48;7.87;;;4.20;;
15645;SDS011;7922;43.622;1.476;2023-07-31T05:52:13;7.43;;;4.30;;
15645;SDS011;7922;43.622;1.476;2023-07-31T05:54:38;7.87;;;4.17;;
15645;SDS011;7922;43.622;1.476;2023-07-31T05:57:04;7.40;;;4.10;;
15645;SDS011;7922;43.622;1.476;2023-07-31T05:59:29;6.97;;;4.10;;
15645;SDS011;7922;43.622;1.476;2023-07-31T06:01:55;9.10;;;3.97;;
15645;SDS011;7922;43.622;1.476;2023-07-31T06:04:20;6.70;;;4.00;;
15645;SDS011;7922;43.622;1.476;2023-07-31T06:06:45;8.10;;;4.63;;
15645;SDS011;7922;43.622;1.476;2023-07-31T06:09:10;7.57;;;4.07;;
15645;SDS011;7922;43.622;1.476;2023-07-31T06:11:36;7.57;;;3.97;;
15645;SDS011;7922;43.622;1.476;2023-07-31T06:14:01;6.70;;;4.33;;
15645;SDS011;7922;43.622;1.476;2023-07-31T06:16:26;7.90;;;3.77;;
15645;SDS011;7922;43.622;1.476;2023-07-31T06:18:51;8.23;;;4.13;;
15645;SDS011;7922;43.622;1.476;2023-07-31T06:21:17;8.20;;;4.50;;
15645;SDS011;7922;43.622;1.476;2023-07-31T06:23:42;10.13;;;4.23;;
15645;SDS011;7922;43.622;1.476;2023-07-31T06:26:07;10.13;;;4.20;;
15645;SDS011;7922;43.622;1.476;2023-07-31T06:28:33;9.63;;;4.67;;
15645;SDS011;7922;43.622;1.476;2023-07-31T06:30:58;13.47;;;3.90;;
15645;SDS011;7922;43.622;1.476;2023-07-31T06:33:24;8.00;;;3.90;;
15645;SDS011;7922;43.622;1.476;2023-07-31T06:35:49;6.17;;;3.93;;
15645;SDS011;7922;43.622;1.476;2023-07-31T06:38:14;8.97;;;4.30;;
15645;SDS011;7922;43.622;1.476;2023-07-31T06:40:40;5.13;;;3.60;;
15645;SDS011;7922;43.622;1.476;2023-07-31T06:43:05;8.53;;;4.33;;
15645;SDS011;7922;43.622;1.476;2023-07-31T06:45:31;9.40;;;4.07;;
15645;SDS011;7922;43.622;1.476;2023-07-31T06:47:56;7.73;;;4.03;;
15645;SDS011;7922;43.622;1.476;2023-07-31T06:50:21;8.50;;;3.73;;
15645;SDS011;7922;43.622;1.476;2023-07-31T06:52:46;7.33;;;3.90;;
15645;SDS011;7922;43.622;1.476;2023-07-31T06:55:18;8.90;;;3.67;;
15645;SDS011;7922;43.622;1.476;2023-07-31T06:57:45;7.93;;;3.60;;
15645;SDS011;7922;43.622;1.476;2023-07-31T07:00:11;6.40;;;3.60;;
15645;SDS011;7922;43.622;1.476;2023-07-31T07:02:36;6.60;;;3.77;;
15645;SDS011;7922;43.622;1.476;2023-07-31T07:05:02;8.07;;;3.60;;
15645;SDS011;7922;43.622;1.476;2023-07-31T07:07:27;9.00;;;3.87;;
15645;SDS011;7922;43.622;1.476;2023-07-31T07:09:52;7.37;;;3.93;;
15645;SDS011;7922;43.622;1.476;2023-07-31T07:12:18;7.77;;;3.60;;
15645;SDS011;7922;43.622;1.476;2023-07-31T07:14:43;8.63;;;3.80;;
15645;SDS011;7922;43.622;1.476;2023-07-31T07:17:09;5.77;;;3.70;;
15645;SDS011;7922;43.622;1.476;2023-07-31T07:19:34;6.77;;;3.57;;
15645;SDS011;7922;43.622;1.476;2023-07-31T07:21:59;8.87;;;3.73;;
15645;SDS011;7922;43.622;1.476;2023-07-31T07:24:24;6.80;;;3.93;;
15645;SDS011;7922;43.622;1.476;2023-07-31T07:26:50;8.23;;;3.40;;
15645;SDS011;7922;43.622;1.476;2023-07-31T07:29:15;7.93;;;3.47;;
15645;SDS011;7922;43.622;1.476;2023-07-31T07:31:40;6.23;;;3.60;;
15645;SDS011;7922;43.622;1.476;2023-07-31T07:34:05;6.37;;;3.63;;
15645;SDS011;7922;43.622;1.476;2023-07-31T07:36:31;7.87;;;3.90;;
15645;SDS011;7922;43.622;1.476;2023-07-31T07:38:56;7.47;;;3.73;;
15645;SDS011;7922;43.622;1.476;2023-07-31T07:41:21;8.83;;;3.50;;
15645;SDS011;7922;43.622;1.476;2023-07-31T07:43:46;8.57;;;3.83;;
15645;SDS011;7922;43.622;1.476;2023-07-31T07:46:12;5.80;;;3.67;;
15645;SDS011;7922;43.622;1.476;2023-07-31T07:48:37;8.23;;;3.90;;
15645;SDS011;7922;43.622;1.476;2023-07-31T07:51:02;8.77;;;3.97;;
15645;SDS011;7922;43.622;1.476;2023-07-31T07:53:28;10.57;;;4.00;;
15645;SDS011;7922;43.622;1.476;2023-07-31T07:55:53;6.97;;;4.03;;
15645;SDS011;7922;43.622;1.476;2023-07-31T07:58:18;8.67;;;3.80;;
15645;SDS011;7922;43.622;1.476;2023-07-31T08:00:48;7.30;;;3.70;;
15645;SDS011;7922;43.622;1.476;2023-07-31T08:03:15;6.20;;;3.13;;
15645;SDS011;7922;43.622;1.476;2023-07-31T08:05:40;7.90;;;3.63;;
15645;SDS011;7922;43.622;1.476;2023-07-31T08:08:05;7.13;;;3.70;;
15645;SDS011;7922;43.622;1.476;2023-07-31T08:10:30;7.40;;;3.37;;
15645;SDS011;7922;43.622;1.476;2023-07-31T08:12:56;7.43;;;3.80;;
15645;SDS011;7922;43.622;1.476;2023-07-31T08:15:21;8.07;;;3.53;;
15645;SDS011;7922;43.622;1.476;2023-07-31T08:17:46;7.37;;;3.90;;
15645;SDS011;7922;43.622;1.476;2023-07-31T08:20:12;7.53;;;3.40;;
15645;SDS011;7922;43.622;1.476;2023-07-31T08:22:37;8.50;;;4.23;;
15645;SDS011;7922;43.622;1.476;2023-07-31T08:25:02;7.43;;;3.40;;
15645;SDS011;7922;43.622;1.476;2023-07-31T08:27:28;9.10;;;3.63;;
15645;SDS011;7922;43.622;1.476;2023-07-31T08:29:53;7.73;;;4.17;;
15645;SDS011;7922;43.622;1.476;2023-07-31T08:32:18;6.63;;;3.63;;
15645;SDS011;7922;43.622;1.476;2023-07-31T08:34:43;9.00;;;4.47;;
15645;SDS011;7922;43.622;1.476;2023-07-31T08:37:09;6.87;;;3.97;;
15645;SDS011;7922;43.622;1.476;2023-07-31T08:39:34;8.83;;;3.50;;
15645;SDS011;7922;43.622;1.476;2023-07-31T08:41:59;6.27;;;3.60;;
15645;SDS011;7922;43.622;1.476;2023-07-31T08:44:25;5.53;;;3.27;;
15645;SDS011;7922;43.622;1.476;2023-07-31T08:46:50;7.87;;;3.33;;
15645;SDS011;7922;43.622;1.476;2023-07-31T08:49:16;7.70;;;3.80;;
15645;SDS011;7922;43.622;1.476;2023-07-31T08:51:45;6.53;;;3.93;;
15645;SDS011;7922;43.622;1.476;2023-07-31T08:54:12;5.50;;;4.07;;
15645;SDS011;7922;43.622;1.476;2023-07-31T08:56:37;6.27;;;3.60;;
15645;SDS011;7922;43.622;1.476;2023-07-31T08:59:04;6.00;;;4.00;;
15645;SDS011;7922;43.622;1.476;2023-07-31T09:01:30;6.00;;;3.47;;
15645;SDS011;7922;43.622;1.476;2023-07-31T09:04:00;6.93;;;3.60;;
15645;SDS011;7922;43.622;1.476;2023-07-31T09:06:26;6.20;;;3.20;;
15645;SDS011;7922;43.622;1.476;2023-07-31T09:08:55;5.93;;;3.67;;
15645;SDS011;7922;43.622;1.476;2023-07-31T09:11:20;4.97;;;2.87;;
15645;SDS011;7922;43.622;1.476;2023-07-31T09:13:46;6.00;;;3.67;;
15645;SDS011;7922;43.622;1.476;2023-07-31T09:16:12;5.57;;;3.20;;
15645;SDS011;7922;43.622;1.476;2023-07-31T09:18:53;4.83;;;2.50;;
15645;SDS011;7922;43.622;1.476;2023-07-31T09:21:20;3.97;;;2.73;;
15645;SDS011;7922;43.622;1.476;2023-07-31T09:23:46;4.33;;;2.63;;
15645;SDS011;7922;43.622;1.476;2023-07-31T09:26:16;3.90;;;2.30;;
15645;SDS011;7922;43.622;1.476;2023-07-31T09:29:01;4.57;;;2.40;;
15645;SDS011;7922;43.622;1.476;2023-07-31T09:31:33;3.97;;;2.50;;
15645;SDS011;7922;43.622;1.476;2023-07-31T09:34:04;4.37;;;2.27;;
15645;SDS011;7922;43.622;1.476;2023-07-31T09:36:29;4.83;;;2.67;;
15645;SDS011;7922;43.622;1.476;2023-07-31T09:38:55;5.00;;;2.80;;
15645;SDS011;7922;43.622;1.476;2023-07-31T09:41:20;5.20;;;2.93;;
15645;SDS011;7922;43.622;1.476;2023-07-31T09:43:52;5.87;;;2.80;;
15645;SDS011;7922;43.622;1.476;2023-07-31T09:46:18;4.43;;;3.00;;
15645;SDS011;7922;43.622;1.476;2023-07-31T09:48:45;6.13;;;3.13;;
15645;SDS011;7922;43.622;1.476;2023-07-31T09:51:11;4.17;;;3.27;;
15645;SDS011;7922;43.622;1.476;2023-07-31T09:53:36;5.67;;;3.20;;
15645;SDS011;7922;43.622;1.476;2023-07-31T09:56:02;5.13;;;3.07;;
15645;SDS011;7922;43.622;1.476;2023-07-31T09:58:29;4.77;;;2.90;;
15645;SDS011;7922;43.622;1.476;2023-07-31T10:00:59;6.57;;;2.97;;
15645;SDS011;7922;43.622;1.476;2023-07-31T10:03:26;4.53;;;2.90;;
15645;SDS011;7922;43.622;1.476;2023-07-31T10:05:55;5.50;;;3.20;;
15645;SDS011;7922;43.622;1.476;2023-07-31T10:08:21;5.10;;;2.77;;
15645;SDS011;7922;43.622;1.476;2023-07-31T10:10:52;4.63;;;2.57;;
15645;SDS011;7922;43.622;1.476;2023-07-31T10:13:17;3.93;;;2.17;;
15645;SDS011;7922;43.622;1.476;2023-07-31T10:15:44;7.47;;;3.07;;
15645;SDS011;7922;43.622;1.476;2023-07-31T10:18:11;4.33;;;2.83;;
15645;SDS011;7922;43.622;1.476;2023-07-31T10:20:37;6.97;;;3.13;;
15645;SDS011;7922;43.622;1.476;2023-07-31T10:23:02;4.07;;;2.80;;
15645;SDS011;7922;43.622;1.476;2023-07-31T10:25:28;3.83;;;2.63;;
15645;SDS011;7922;43.622;1.476;2023-07-31T10:27:54;4.90;;;2.83;;
15645;SDS011;7922;43.622;1.476;2023-07-31T10:30:20;6.10;;;3.00;;
15645;SDS011;7922;43.622;1.476;2023-07-31T10:32:55;5.03;;;2.73;;
15645;SDS011;7922;43.622;1.476;2023-07-31T10:35:22;4.03;;;2.53;;
15645;SDS011;7922;43.622;1.476;2023-07-31T10:37:47;5.70;;;2.67;;
15645;SDS011;7922;43.622;1.476;2023-07-31T10:40:17;4.90;;;2.87;;
15645;SDS011;7922;43.622;1.476;2023-07-31T10:42:52;6.90;;;2.73;;
15645;SDS011;7922;43.622;1.476;2023-07-31T10:47:49;3.73;;;2.40;;
15645;SDS011;7922;43.622;1.476;2023-07-31T10:50:23;3.83;;;2.60;;
15645;SDS011;7922;43.622;1.476;2023-07-31T10:52:49;4.07;;;2.30;;
15645;SDS011;7922;43.622;1.476;2023-07-31T10:56:02;4.60;;;2.67;;
15645;SDS011;7922;43.622;1.476;2023-07-31T11:00:36;4.60;;;2.70;;
15645;SDS011;7922;43.622;1.476;2023-07-31T11:08:28;5.47;;;2.47;;
15645;SDS011;7922;43.622;1.476;2023-07-31T11:13:34;5.07;;;2.73;;
15645;SDS011;7922;43.622;1.476;2023-07-31T11:16:05;2.87;;;2.27;;
15645;SDS011;7922;43.622;1.476;2023-07-31T11:18:31;4.97;;;2.83;;
15645;SDS011;7922;43.622;1.476;2023-07-31T11:20:56;3.93;;;2.40;;
15645;SDS011;7922;43.622;1.476;2023-07-31T11:23:22;3.80;;;2.70;;
15645;SDS011;7922;43.622;1.476;2023-07-31T11:25:48;5.50;;;2.73;;
15645;SDS011;7922;43.622;1.476;2023-07-31T11:28:15;4.53;;;2.70;;
15645;SDS011;7922;43.622;1.476;2023-07-31T11:30:41;4.60;;;2.83;;
15645;SDS011;7922;43.622;1.476;2023-07-31T11:33:08;4.73;;;2.40;;
15645;SDS011;7922;43.622;1.476;2023-07-31T11:35:36;5.00;;;2.60;;
15645;SDS011;7922;43.622;1.476;2023-07-31T11:38:07;5.33;;;3.37;;
15645;SDS011;7922;43.622;1.476;2023-07-31T11:40:32;4.00;;;2.70;;
15645;SDS011;7922;43.622;1.476;2023-07-31T11:43:06;3.83;;;2.77;;
15645;SDS011;7922;43.622;1.476;2023-07-31T11:45:31;4.10;;;2.97;;
15645;SDS011;7922;43.622;1.476;2023-07-31T11:47:58;4.17;;;2.97;;
15645;SDS011;7922;43.622;1.476;2023-07-31T11:50:23;3.33;;;2.97;;
15645;SDS011;7922;43.622;1.476;2023-07-31T11:52:49;4.97;;;2.83;;
15645;SDS011;7922;43.622;1.476;2023-07-31T11:55:18;4.80;;;3.07;;
15645;SDS011;7922;43.622;1.476;2023-07-31T11:57:43;4.63;;;3.47;;
15645;SDS011;7922;43.622;1.476;2023-07-31T12:00:11;3.97;;;2.57;;
15645;SDS011;7922;43.622;1.476;2023-07-31T12:02:37;4.77;;;2.80;;
15645;SDS011;7922;43.622;1.476;2023-07-31T12:05:03;6.15;;;3.40;;
15645;SDS011;7922;43.622;1.476;2023-07-31T12:07:42;4.45;;;2.72;;
15645;SDS011;7922;43.622;1.476;2023-07-31T12:10:08;6.37;;;2.80;;
15645;SDS011;7922;43.622;1.476;2023-07-31T12:12:34;4.30;;;2.47;;
15645;SDS011;7922;43.622;1.476;2023-07-31T12:14:59;5.07;;;2.87;;
15645;SDS011;7922;43.622;1.476;2023-07-31T12:17:24;6.47;;;3.05;;
15645;SDS011;7922;43.622;1.476;2023-07-31T12:19:49;5.13;;;2.90;;
15645;SDS011;7922;43.622;1.476;2023-07-31T12:22:15;3.43;;;2.30;;
15645;SDS011;7922;43.622;1.476;2023-07-31T12:24:41;5.07;;;2.77;;
15645;SDS011;7922;43.622;1.476;2023-07-31T12:27:14;3.83;;;2.40;;
15645;SDS011;7922;43.622;1.476;2023-07-31T12:29:43;6.43;;;3.05;;
15645;SDS011;7922;43.622;1.476;2023-07-31T12:34:46;3.58;;;2.72;;
15645;SDS011;7922;43.622;1.476;2023-07-31T12:37:11;6.18;;;2.72;;
15645;SDS011;7922;43.622;1.476;2023-07-31T12:39:37;3.40;;;2.88;;
15645;SDS011;7922;43.622;1.476;2023-07-31T12:42:02;4.03;;;3.00;;
15645;SDS011;7922;43.622;1.476;2023-07-31T12:44:28;5.77;;;3.00;;
15645;SDS011;7922;43.622;1.476;2023-07-31T12:46:53;5.87;;;2.80;;
15645;SDS011;7922;43.622;1.476;2023-07-31T12:49:18;4.00;;;2.77;;
15645;SDS011;7922;43.622;1.476;2023-07-31T12:51:43;4.20;;;2.55;;
15645;SDS011;7922;43.622;1.476;2023-07-31T12:54:09;4.75;;;2.67;;
15645;SDS011;7922;43.622;1.476;2023-07-31T12:56:34;6.32;;;2.90;;
15645;SDS011;7922;43.622;1.476;2023-07-31T12:58:59;5.25;;;2.92;;
15645;SDS011;7922;43.622;1.476;2023-07-31T13:01:25;5.03;;;2.85;;
15645;SDS011;7922;43.622;1.476;2023-07-31T13:03:50;5.45;;;2.88;;
15645;SDS011;7922;43.622;1.476;2023-07-31T13:06:15;3.65;;;2.63;;
15645;SDS011;7922;43.622;1.476;2023-07-31T13:08:40;9.02;;;3.17;;
15645;SDS011;7922;43.622;1.476;2023-07-31T13:11:06;3.50;;;2.47;;
15645;SDS011;7922;43.622;1.476;2023-07-31T13:13:31;4.40;;;2.45;;
15645;SDS011;7922;43.622;1.476;2023-07-31T13:15:56;2.78;;;2.50;;
15645;SDS011;7922;43.622;1.476;2023-07-31T13:18:21;4.03;;;2.63;;
15645;SDS011;7922;43.622;1.476;2023-07-31T13:20:47;4.93;;;3.03;;
15645;SDS011;7922;43.622;1.476;2023-07-31T13:23:12;4.97;;;2.65;;
15645;SDS011;7922;43.622;1.476;2023-07-31T13:25:37;5.10;;;2.70;;
15645;SDS011;7922;43.622;1.476;2023-07-31T13:28:03;5.50;;;2.60;;
15645;SDS011;7922;43.622;1.476;2023-07-31T13:30:28;3.63;;;2.67;;
15645;SDS011;7922;43.622;1.476;2023-07-31T13:32:53;4.43;;;3.08;;
15645;SDS011;7922;43.622;1.476;2023-07-31T13:35:19;4.35;;;2.70;;
15645;SDS011;7922;43.622;1.476;2023-07-31T13:37:44;5.28;;;3.05;;
15645;SDS011;7922;43.622;1.476;2023-07-31T13:40:09;5.47;;;2.90;;
15645;SDS011;7922;43.622;1.476;2023-07-31T13:42:35;3.97;;;2.38;;
15645;SDS011;7922;43.622;1.476;2023-07-31T13:45:00;3.63;;;2.90;;
15645;SDS011;7922;43.622;1.476;2023-07-31T13:47:25;5.05;;;2.60;;
15645;SDS011;7922;43.622;1.476;2023-07-31T13:49:51;4.47;;;2.88;;
15645;SDS011;7922;43.622;1.476;2023-07-31T13:52:16;3.45;;;2.72;;
15645;SDS011;7922;43.622;1.476;2023-07-31T13:54:41;5.22;;;3.15;;
15645;SDS011;7922;43.622;1.476;2023-07-31T13:57:06;6.15;;;2.88;;
15645;SDS011;7922;43.622;1.476;2023-07-31T13:59:32;3.95;;;2.90;;
15645;SDS011;7922;43.622;1.476;2023-07-31T14:01:57;5.35;;;2.83;;
15645;SDS011;7922;43.622;1.476;2023-07-31T14:04:22;5.30;;;3.03;;
15645;SDS011;7922;43.622;1.476;2023-07-31T14:06:48;3.75;;;2.60;;
15645;SDS011;7922;43.622;1.476;2023-07-31T14:09:13;4.70;;;2.50;;
15645;SDS011;7922;43.622;1.476;2023-07-31T14:11:39;3.35;;;2.55;;
15645;SDS011;7922;43.622;1.476;2023-07-31T14:14:04;4.22;;;2.70;;
15645;SDS011;7922;43.622;1.476;2023-07-31T14:16:29;5.53;;;3.33;;
15645;SDS011;7922;43.622;1.476;2023-07-31T14:18:54;5.85;;;3.10;;
15645;SDS011;7922;43.622;1.476;2023-07-31T14:21:20;4.93;;;3.03;;
15645;SDS011;7922;43.622;1.476;2023-07-31T14:23:45;3.53;;;2.65;;
15645;SDS011;7922;43.622;1.476;2023-07-31T14:26:10;4.07;;;2.75;;
15645;SDS011;7922;43.622;1.476;2023-07-31T14:28:36;3.80;;;2.85;;
15645;SDS011;7922;43.622;1.476;2023-07-31T14:31:03;4.15;;;2.90;;
15645;SDS011;7922;43.622;1.476;2023-07-31T14:33:28;3.35;;;3.03;;
15645;SDS011;7922;43.622;1.476;2023-07-31T14:35:53;5.68;;;3.13;;
15645;SDS011;7922;43.622;1.476;2023-07-31T14:38:18;3.08;;;2.72;;
15645;SDS011;7922;43.622;1.476;2023-07-31T14:40:44;4.47;;;2.85;;
15645;SDS011;7922;43.622;1.476;2023-07-31T14:43:09;5.97;;;3.00;;
15645;SDS011;7922;43.622;1.476;2023-07-31T14:45:34;4.40;;;3.05;;
15645;SDS011;7922;43.622;1.476;2023-07-31T14:48:00;4.18;;;3.00;;
15645;SDS011;7922;43.622;1.476;2023-07-31T14:50:25;3.50;;;3.20;;
15645;SDS011;7922;43.622;1.476;2023-07-31T14:52:51;4.90;;;3.08;;
15645;SDS011;7922;43.622;1.476;2023-07-31T14:55:16;5.50;;;3.13;;
15645;SDS011;7922;43.622;1.476;2023-07-31T14:57:42;5.30;;;3.30;;
15645;SDS011;7922;43.622;1.476;2023-07-31T15:00:08;5.22;;;3.45;;
15645;SDS011;7922;43.622;1.476;2023-07-31T15:02:40;6.35;;;3.30;;
15645;SDS011;7922;43.622;1.476;2023-07-31T15:05:05;3.67;;;3.05;;
15645;SDS011;7922;43.622;1.476;2023-07-31T15:07:31;4.13;;;3.15;;
15645;SDS011;7922;43.622;1.476;2023-07-31T15:09:57;4.93;;;3.42;;
15645;SDS011;7922;43.622;1.476;2023-07-31T15:12:22;4.65;;;3.58;;
15645;SDS011;7922;43.622;1.476;2023-07-31T15:14:48;3.92;;;3.13;;